Time;durP1;ratioP1;P1;durP2;ratioP2;P2;SDS_P1;SDS_P2;PMS_P1;PMS_P2;Temp;Humidity;BMP_temperature;BMP_pressure;BME280_temperature;BME280_humidity;BME280_pressure;Samples;Min_cycle;Max_cycle;Signal;HPM_P1;HPM_P2
2022/08/06 00:00:53;;;;;;;0.55;0.28;;;;;;;;;;21137726;28;20263;-70
2022/08/06 00:10:55;;;;;;;1.80;0.50;;;;;;;;;;21153889;28;20230;-71
2022/08/06 00:20:57;;;;;;;0.40;0.30;;;;;;;;;;21154236;28;20209;-72
2022/08/06 00:31:00;;;;;;;2.20;0.57;;;24.40;94.70;;;;;;21153772;28;20206;-71
2022/08/06 00:41:02;;;;;;;1.23;0.63;;;24.40;94.80;;;;;;21134763;28;20332;-72
2022/08/06 00:51:04;;;;;;;0.93;0.38;;;;;;;;;;21153272;28;20577;-72
2022/08/06 01:01:06;;;;;;;0.45;0.30;;;;;;;;;;21151868;28;20581;-71
2022/08/06 01:11:07;;;;;;;0.63;0.43;;;;;;;;;;21132720;28;20221;-71
2022/08/06 01:21:35;;;;;;;1.25;0.35;;;23.80;83.20;;;;;;21132475;28;20260;-71
2022/08/06 01:31:41;;;;;;;0.52;0.38;;;;;;;;;;21134822;28;20241;-71
2022/08/06 01:41:51;;;;;;;0.57;0.38;;;23.40;94.40;;;;;;21140370;28;20224;-71
2022/08/06 01:51:56;;;;;;;0.80;0.32;;;23.50;93.00;;;;;;21149596;28;20261;-71
2022/08/06 02:02:02;;;;;;;0.90;0.40;;;23.40;96.00;;;;;;21149429;28;20218;-71
2022/08/06 02:12:30;;;;;;;0.65;0.40;;;23.40;95.60;;;;;;21148635;28;20710;-71
2022/08/06 02:22:33;;;;;;;0.75;0.30;;;;;;;;;;21146420;28;20269;-71
2022/08/06 02:32:35;;;;;;;0.52;0.30;;;;;;;;;;21138479;28;20591;-71
2022/08/06 02:42:44;;;;;;;1.45;0.35;;;23.00;91.90;;;;;;21162365;28;20216;-71
2022/08/06 02:52:50;;;;;;;1.02;0.57;;;;;;;;;;21198444;22;20569;-69
2022/08/06 03:02:54;;;;;;;0.40;0.30;;;;;;;;;;21248177;27;20852;-69
2022/08/06 03:12:56;;;;;;;0.50;0.32;;;;;;;;;;21233583;27;20203;-69
2022/08/06 03:23:01;;;;;;;0.73;0.30;;;22.40;95.40;;;;;;21233516;27;21349;-69
2022/08/06 03:33:07;;;;;;;0.30;0.30;;;;;;;;;;21238784;27;20218;-69
2022/08/06 03:43:09;;;;;;;4.47;0.30;;;;;;;;;;21214472;27;20228;-69
2022/08/06 03:53:15;;;;;;;0.35;0.28;;;;;;;;;;21245298;27;20262;-69
2022/08/06 04:03:19;;;;;;;0.60;0.30;;;22.10;91.70;;;;;;21214514;27;20287;-69
2022/08/06 04:13:22;;;;;;;0.45;0.20;;;;;;;;;;21242324;27;20203;-69
2022/08/06 04:23:24;;;;;;;1.27;0.30;;;;;;;;;;21223452;27;20634;-69
2022/08/06 04:33:26;;;;;;;1.15;0.50;;;;;;;;;;21224208;27;20221;-68
2022/08/06 04:43:29;;;;;;;0.60;0.30;;;21.70;93.30;;;;;;21239934;27;20240;-68
2022/08/06 04:53:39;;;;;;;0.50;0.30;;;21.50;96.30;;;;;;21144501;27;20224;-71
2022/08/06 05:03:41;;;;;;;0.67;0.30;;;;;;;;;;21146072;28;20265;-71
2022/08/06 05:13:46;;;;;;;2.17;0.40;;;21.20;95.90;;;;;;21129421;28;20213;-72
2022/08/06 05:23:52;;;;;;;2.53;0.43;;;21.30;89.00;;;;;;21156294;28;20269;-71
2022/08/06 05:33:54;;;;;;;3.37;0.60;;;;;;;;;;21153898;28;20202;-72
2022/08/06 05:43:56;;;;;;;5.25;0.70;;;;;;;;;;21138972;28;20219;-71
2022/08/06 05:54:03;;;;;;;0.77;0.30;;;21.20;96.10;;;;;;21228870;28;20693;-72
2022/08/06 06:04:06;;;;;;;0.77;0.40;;;;;;;;;;21221359;27;20245;-72
2022/08/06 06:14:30;;;;;;;0.80;0.20;;;21.50;93.70;;;;;;21232872;27;20266;-72
2022/08/06 06:24:40;;;;;;;4.50;0.85;;;21.50;93.90;;;;;;21229434;27;20267;-72
2022/08/06 06:35:13;;;;;;;1.50;0.30;;;21.60;82.80;;;;;;21231331;27;20202;-71
2022/08/06 06:45:30;;;;;;;0.65;0.30;;;21.70;93.90;;;;;;21231755;27;20265;-71
2022/08/06 06:55:36;;;;;;;0.98;0.20;;;21.80;94.70;;;;;;21160302;28;20275;-70
2022/08/06 07:05:41;;;;;;;2.50;0.32;;;21.90;91.70;;;;;;21161449;28;20216;-73
2022/08/06 07:15:43;;;;;;;0.57;0.22;;;;;;;;;;21142805;28;20612;-75
2022/08/06 07:25:48;;;;;;;0.57;0.30;;;;;;;;;;21140944;28;20255;-70
2022/08/06 07:35:51;;;;;;;2.28;0.32;;;;;;;;;;21140075;28;20208;-73
2022/08/06 07:45:55;;;;;;;0.80;0.40;;;22.80;87.80;;;;;;21153149;28;20262;-72
2022/08/06 07:55:57;;;;;;;0.47;0.20;;;23.00;87.50;;;;;;21143171;27;20218;-70
2022/08/06 08:06:18;;;;;;;0.65;0.30;;;23.20;86.70;;;;;;21132614;27;20765;-73
2022/08/06 08:16:21;;;;;;;0.38;0.30;;;23.70;87.80;;;;;;21214921;27;20209;-74
2022/08/06 08:26:23;;;;;;;0.20;0.13;;;;;;;;;;21152677;27;20208;-73
2022/08/06 08:36:24;;;;;;;0.60;0.50;;;;;;;;;;21163176;27;20207;-74
2022/08/06 08:46:27;;;;;;;0.50;0.32;;;;;;;;;;21132702;28;20208;-74
2022/08/06 08:56:29;;;;;;;0.77;0.30;;;;;;;;;;21021161;22;20230;-80
2022/08/06 09:06:32;;;;;;;2.78;1.05;;;24.20;81.90;;;;;;20925027;28;20687;-77
2022/08/06 09:16:35;;;;;;;0.85;0.25;;;;;;;;;;20890651;28;20206;-77
2022/08/06 09:26:36;;;;;;;0.30;0.30;;;;;;;;;;20858720;28;20214;-78
2022/08/06 09:36:46;;;;;;;1.45;0.40;;;;;;;;;;20939264;28;20775;-77
2022/08/06 09:46:52;;;;;;;0.20;0.20;;;;;;;;;;20864859;28;20291;-77
2022/08/06 09:56:59;;;;;;;0.88;0.20;;;24.90;77.80;;;;;;20895831;28;20436;-79
2022/08/06 10:07:01;;;;;;;0.35;0.22;;;;;;;;;;20938043;28;20226;-79
2022/08/06 10:17:10;;;;;;;0.85;0.30;;;24.10;79.20;;;;;;20923319;28;20210;-78
2022/08/06 10:27:18;;;;;;;0.45;0.30;;;;;;;;;;20951860;28;20617;-78
2022/08/06 10:37:21;;;;;;;0.52;0.25;;;25.60;72.40;;;;;;20925775;28;20205;-79
2022/08/06 10:47:23;;;;;;;0.47;0.30;;;25.50;72.90;;;;;;20914687;28;20699;-79
2022/08/06 10:57:28;;;;;;;1.10;0.30;;;;;;;;;;20886566;28;20240;-79
2022/08/06 11:07:33;;;;;;;0.40;0.20;;;;;;;;;;20915063;28;20217;-78
2022/08/06 11:17:43;;;;;;;0.40;0.20;;;26.50;71.00;;;;;;20972126;28;20209;-79
2022/08/06 11:27:49;;;;;;;1.13;0.63;;;;;;;;;;20969039;28;20221;-79
2022/08/06 11:37:51;;;;;;;1.88;0.20;;;;;;;;;;20837020;28;20238;-80
2022/08/06 11:48:06;;;;;;;0.47;0.30;;;26.90;61.90;;;;;;20939777;28;20510;-79
2022/08/06 11:58:18;;;;;;;0.75;0.22;;;;;;;;;;20930996;28;20651;-78
2022/08/06 12:08:21;;;;;;;1.08;0.20;;;26.90;67.80;;;;;;20929770;28;20334;-77
2022/08/06 12:18:23;;;;;;;0.10;0.10;;;;;;;;;;20986799;28;20200;-77
2022/08/06 12:28:25;;;;;;;0.55;0.20;;;;;;;;;;20987809;28;20246;-78
2022/08/06 12:38:30;;;;;;;0.30;0.20;;;;;;;;;;20974181;28;20245;-77
2022/08/06 12:48:36;;;;;;;0.80;0.52;;;27.40;63.90;;;;;;20991978;28;20212;-77
2022/08/06 12:58:39;;;;;;;0.47;0.20;;;;;;;;;;20991504;28;20559;-78
2022/08/06 13:08:41;;;;;;;0.38;0.20;;;;;;;;;;20992898;28;20586;-77
2022/08/06 13:19:03;;;;;;;0.52;0.30;;;;;;;;;;20983909;28;20207;-77
2022/08/06 13:29:11;;;;;;;0.22;0.20;;;;;;;;;;21000238;28;20258;-77
2022/08/06 13:39:24;;;;;;;0.43;0.22;;;;;;;;;;20960503;28;20223;-76
2022/08/06 13:49:26;;;;;;;0.30;0.20;;;;;;;;;;20985660;28;20225;-77
2022/08/06 13:59:30;;;;;;;0.63;0.20;;;28.20;57.60;;;;;;20966201;28;20637;-77
2022/08/06 14:09:32;;;;;;;0.85;0.20;;;;;;;;;;20985082;28;20212;-77
2022/08/06 14:19:34;;;;;;;0.35;0.20;;;;;;;;;;20987345;28;20212;-77
2022/08/06 14:29:35;;;;;;;0.30;0.20;;;;;;;;;;20996889;28;20223;-77
2022/08/06 14:39:37;;;;;;;0.43;0.32;;;;;;;;;;20988176;28;20682;-77
2022/08/06 14:49:39;;;;;;;0.38;0.20;;;;;;;;;;20995851;28;20209;-76
2022/08/06 14:59:41;;;;;;;0.85;0.30;;;;;;;;;;21057563;22;20294;-71
2022/08/06 15:09:44;;;;;;;0.40;0.15;;;;;;;;;;21028774;28;20212;-70
2022/08/06 15:19:45;;;;;;;0.30;0.20;;;;;;;;;;21027560;28;20718;-71
2022/08/06 15:29:47;;;;;;;1.55;0.30;;;;;;;;;;21027729;28;20740;-71
2022/08/06 15:39:49;;;;;;;0.38;0.22;;;;;;;;;;21025707;28;20328;-71
2022/08/06 15:49:51;;;;;;;0.13;0.13;;;;;;;;;;21025762;28;20216;-71
2022/08/06 15:59:53;;;;;;;0.77;0.20;;;;;;;;;;21025065;28;20276;-71
2022/08/06 16:09:55;;;;;;;0.63;0.25;;;;;;;;;;21024555;28;20199;-71
2022/08/06 16:19:58;;;;;;;0.10;0.10;;;;;;;;;;21056642;28;20235;-71
2022/08/06 16:29:59;;;;;;;0.20;0.20;;;;;;;;;;21023243;28;20212;-73
2022/08/06 16:40:01;;;;;;;1.67;0.40;;;;;;;;;;21022365;28;20223;-71
2022/08/06 16:50:03;;;;;;;0.82;0.10;;;;;;;;;;21020829;28;20676;-71
2022/08/06 17:00:19;;;;;;;2.75;0.20;;;27.50;62.70;;;;;;21066795;28;20218;-75
2022/08/06 17:10:21;;;;;;;2.70;0.30;;;;;;;;;;21025007;28;20318;-68
2022/08/06 17:20:24;;;;;;;0.65;0.20;;;;;;;;;;21048251;28;20744;-77
2022/08/06 17:30:26;;;;;;;0.20;0.20;;;;;;;;;;21022907;28;20210;-76
2022/08/06 17:40:28;;;;;;;0.65;0.25;;;;;;;;;;21008264;28;20222;-72
2022/08/06 17:50:30;;;;;;;0.63;0.10;;;24.80;65.30;;;;;;21019927;28;20263;-75
2022/08/06 18:00:32;;;;;;;0.22;0.15;;;26.40;66.40;;;;;;21040083;28;20222;-71
2022/08/06 18:10:34;;;;;;;0.22;0.20;;;;;;;;;;21135363;28;20271;-72
2022/08/06 18:20:36;;;;;;;3.42;1.20;;;;;;;;;;21053486;28;20744;-73
2022/08/06 18:30:38;;;;;;;0.38;0.20;;;;;;;;;;21059922;28;20215;-70
2022/08/06 18:40:40;;;;;;;0.32;0.17;;;;;;;;;;21063277;28;20285;-71
2022/08/06 18:50:42;;;;;;;0.20;0.15;;;;;;;;;;21071948;28;20242;-71
2022/08/06 19:00:45;;;;;;;1.55;0.20;;;;;;;;;;21048102;28;20240;-72
2022/08/06 19:10:47;;;;;;;0.52;0.30;;;;;;;;;;21020128;28;20282;-71
2022/08/06 19:20:49;;;;;;;0.77;0.30;;;;;;;;;;21022382;28;20239;-71
2022/08/06 19:30:51;;;;;;;0.43;0.20;;;;;;;;;;21025442;28;20236;-73
2022/08/06 19:40:52;;;;;;;0.30;0.20;;;;;;;;;;21023422;28;20631;-72
2022/08/06 19:50:54;;;;;;;0.30;0.20;;;;;;;;;;21033783;28;20969;-72
2022/08/06 20:01:07;;;;;;;0.25;0.10;;;;;;;;;;21099904;28;20226;-72
2022/08/06 20:11:09;;;;;;;0.22;0.20;;;;;;;;;;21125448;28;20264;-72
2022/08/06 20:21:11;;;;;;;1.80;0.20;;;;;;;;;;21107266;28;20227;-72
2022/08/06 20:31:13;;;;;;;1.40;0.30;;;;;;;;;;21083339;28;20214;-72
2022/08/06 20:41:15;;;;;;;0.20;0.20;;;;;;;;;;21138258;28;20287;-72
2022/08/06 20:51:18;;;;;;;0.22;0.20;;;;;;;;;;21105073;28;20681;-72
2022/08/06 21:01:20;;;;;;;0.60;0.20;;;;;;;;;;21120647;28;20217;-72
2022/08/06 21:11:22;;;;;;;0.20;0.20;;;;;;;;;;21071106;22;20603;-77
2022/08/06 21:21:23;;;;;;;0.80;0.30;;;;;;;;;;21068659;28;20278;-77
2022/08/06 21:31:25;;;;;;;0.38;0.30;;;;;;;;;;21052021;28;20470;-78
2022/08/06 21:41:28;;;;;;;0.25;0.20;;;;;;;;;;21076638;28;20692;-78
2022/08/06 21:51:30;;;;;;;3.92;0.35;;;;;;;;;;21106414;28;20262;-78
2022/08/06 22:01:32;;;;;;;0.60;0.30;;;;;;;;;;21053583;28;20745;-78
2022/08/06 22:11:33;;;;;;;0.60;0.10;;;;;;;;;;21081529;28;20773;-77
2022/08/06 22:21:35;;;;;;;1.30;0.38;;;;;;;;;;21090802;28;20276;-77
2022/08/06 22:31:37;;;;;;;0.22;0.20;;;;;;;;;;21085508;28;20226;-77
2022/08/06 22:41:39;;;;;;;0.20;0.20;;;;;;;;;;21084869;28;20274;-78
2022/08/06 22:51:40;;;;;;;0.10;0.10;;;;;;;;;;21081081;28;20213;-78
2022/08/06 23:01:42;;;;;;;0.40;0.20;;;22.70;73.00;;;;;;21097729;28;20285;-77
2022/08/06 23:11:44;;;;;;;0.32;0.20;;;;;;;;;;21089423;28;20219;-78
2022/08/06 23:21:46;;;;;;;0.10;0.10;;;;;;;;;;21088186;28;20286;-77
2022/08/06 23:31:47;;;;;;;0.55;0.20;;;;;;;;;;21085640;28;20211;-77
2022/08/06 23:41:49;;;;;;;2.65;0.40;;;21.90;76.90;;;;;;21083118;28;20677;-78
2022/08/06 23:51:54;;;;;;;0.17;0.17;;;;;;;;;;21080746;28;20462;-76
